23  °C
Temperature
73  °F
Temperature
63  °F
 Dewpoint
17  °C
  Dewpoint
69  %
 Humidity
  Temperature
23  km/h
Wind Speed
12  kts
Wind Speed
14  mph
Wind Speed
6.3  m/s
Wind Speed
300°
West North
West

Wind Speed
Clear
Conditions
Pressure 1020.92 (hPa) - 30.15 (inHG)
Visibility 10.0 (km) - 6.2 (mi)

Sky Conditions
LHBP
Location Budapest Ferenc Liszt International 20 km (12.43 mi)
Metar :LHBP 212100Z 30012KT CAVOK 23/17 Q1021 NOSIG
Sun 21st July 22:00 pm

Nearest Airport
https://www.checkwx.com/weather/LHBP
  Metar Aviation API Data Provided by https://www.checkwx.com/ Original CSS/SVG/PHP scripts by weather34.com © 2015-2019